sensor_id;sensor_type;location;lat;lon;timestamp;pressure;altitude;pressure_sealevel;temperature;humidity
3796;BME280;1913;50.660;7.834;2023-04-25T00:01:28;96525.84;;;5.01;100.00
3796;BME280;1913;50.660;7.834;2023-04-25T00:03:53;96526.13;;;5.07;100.00
3796;BME280;1913;50.660;7.834;2023-04-25T00:06:19;96524.81;;;4.96;100.00
3796;BME280;1913;50.660;7.834;2023-04-25T00:08:45;96528.84;;;4.98;100.00
3796;BME280;1913;50.660;7.834;2023-04-25T00:11:10;96522.31;;;4.88;100.00
3796;BME280;1913;50.660;7.834;2023-04-25T00:13:35;96524.38;;;4.92;100.00
3796;BME280;1913;50.660;7.834;2023-04-25T00:16:01;96530.13;;;4.88;100.00
3796;BME280;1913;50.660;7.834;2023-04-25T00:18:27;96522.69;;;4.85;100.00
3796;BME280;1913;50.660;7.834;2023-04-25T00:20:58;96527.38;;;4.74;100.00
3796;BME280;1913;50.660;7.834;2023-04-25T00:23:23;96530.56;;;4.76;100.00
3796;BME280;1913;50.660;7.834;2023-04-25T00:25:49;96528.88;;;4.69;100.00
3796;BME280;1913;50.660;7.834;2023-04-25T00:28:15;96526.84;;;4.64;100.00
3796;BME280;1913;50.660;7.834;2023-04-25T00:30:41;96536.59;;;4.62;100.00
3796;BME280;1913;50.660;7.834;2023-04-25T00:33:07;96531.41;;;4.62;100.00
3796;BME280;1913;50.660;7.834;2023-04-25T00:35:33;96531.47;;;4.69;100.00
3796;BME280;1913;50.660;7.834;2023-04-25T00:37:59;96532.94;;;4.56;100.00
3796;BME280;1913;50.660;7.834;2023-04-25T00:40:25;96532.94;;;4.56;100.00
3796;BME280;1913;50.660;7.834;2023-04-25T00:42:51;96529.53;;;4.56;100.00
3796;BME280;1913;50.660;7.834;2023-04-25T00:45:17;96527.00;;;4.48;100.00
3796;BME280;1913;50.660;7.834;2023-04-25T00:47:43;96530.00;;;4.45;100.00
3796;BME280;1913;50.660;7.834;2023-04-25T00:50:10;96524.16;;;4.43;100.00
3796;BME280;1913;50.660;7.834;2023-04-25T00:52:37;96521.19;;;4.46;100.00
3796;BME280;1913;50.660;7.834;2023-04-25T00:55:03;96522.25;;;4.37;100.00
3796;BME280;1913;50.660;7.834;2023-04-25T00:57:29;96524.25;;;4.49;100.00
3796;BME280;1913;50.660;7.834;2023-04-25T00:59:55;96513.38;;;4.46;100.00
3796;BME280;1913;50.660;7.834;2023-04-25T01:02:21;96516.44;;;4.35;100.00
3796;BME280;1913;50.660;7.834;2023-04-25T01:04:47;96517.41;;;4.33;100.00
3796;BME280;1913;50.660;7.834;2023-04-25T01:07:13;96510.16;;;4.44;100.00
3796;BME280;1913;50.660;7.834;2023-04-25T01:09:40;96514.75;;;4.27;100.00
3796;BME280;1913;50.660;7.834;2023-04-25T01:12:06;96511.06;;;4.21;100.00
3796;BME280;1913;50.660;7.834;2023-04-25T01:14:32;96521.16;;;4.16;100.00
3796;BME280;1913;50.660;7.834;2023-04-25T01:16:58;96517.94;;;4.14;100.00
3796;BME280;1913;50.660;7.834;2023-04-25T01:19:24;96516.16;;;4.15;100.00
3796;BME280;1913;50.660;7.834;2023-04-25T01:21:50;96517.66;;;4.09;100.00
3796;BME280;1913;50.660;7.834;2023-04-25T01:24:15;96517.22;;;4.05;100.00
3796;BME280;1913;50.660;7.834;2023-04-25T01:26:41;96520.19;;;4.02;100.00
3796;BME280;1913;50.660;7.834;2023-04-25T01:29:10;96526.25;;;3.95;100.00
3796;BME280;1913;50.660;7.834;2023-04-25T01:31:36;96526.88;;;3.82;100.00
3796;BME280;1913;50.660;7.834;2023-04-25T01:34:02;96528.03;;;3.79;100.00
3796;BME280;1913;50.660;7.834;2023-04-25T01:36:27;96524.16;;;3.75;100.00
3796;BME280;1913;50.660;7.834;2023-04-25T01:38:53;96527.28;;;3.71;100.00
3796;BME280;1913;50.660;7.834;2023-04-25T01:41:18;96524.34;;;3.74;100.00
3796;BME280;1913;50.660;7.834;2023-04-25T01:43:44;96531.72;;;3.62;100.00
3796;BME280;1913;50.660;7.834;2023-04-25T01:46:11;96528.16;;;3.63;100.00
3796;BME280;1913;50.660;7.834;2023-04-25T01:48:36;96530.94;;;3.62;100.00
3796;BME280;1913;50.660;7.834;2023-04-25T01:51:02;96531.63;;;3.55;100.00
3796;BME280;1913;50.660;7.834;2023-04-25T01:53:28;96532.78;;;3.53;100.00
3796;BME280;1913;50.660;7.834;2023-04-25T01:55:53;96537.34;;;3.51;100.00
3796;BME280;1913;50.660;7.834;2023-04-25T01:58:19;96535.72;;;3.50;100.00
3796;BME280;1913;50.660;7.834;2023-04-25T02:00:44;96531.88;;;3.46;100.00
3796;BME280;1913;50.660;7.834;2023-04-25T02:03:09;96534.13;;;3.49;100.00
3796;BME280;1913;50.660;7.834;2023-04-25T02:05:36;96543.59;;;3.42;100.00
3796;BME280;1913;50.660;7.834;2023-04-25T02:08:03;96549.06;;;3.47;100.00
3796;BME280;1913;50.660;7.834;2023-04-25T02:10:28;96541.00;;;3.42;100.00
3796;BME280;1913;50.660;7.834;2023-04-25T02:12:54;96537.28;;;3.36;100.00
3796;BME280;1913;50.660;7.834;2023-04-25T02:15:19;96541.63;;;3.44;100.00
3796;BME280;1913;50.660;7.834;2023-04-25T02:17:45;96538.56;;;3.40;100.00
3796;BME280;1913;50.660;7.834;2023-04-25T02:20:11;96545.00;;;3.44;100.00
3796;BME280;1913;50.660;7.834;2023-04-25T02:22:36;96544.06;;;3.45;100.00
3796;BME280;1913;50.660;7.834;2023-04-25T02:25:02;96536.06;;;3.47;100.00
3796;BME280;1913;50.660;7.834;2023-04-25T02:27:30;96537.88;;;3.46;100.00
3796;BME280;1913;50.660;7.834;2023-04-25T02:29:55;96542.47;;;3.59;100.00
3796;BME280;1913;50.660;7.834;2023-04-25T02:32:20;96540.50;;;3.61;100.00
3796;BME280;1913;50.660;7.834;2023-04-25T02:34:46;96549.41;;;3.67;100.00
3796;BME280;1913;50.660;7.834;2023-04-25T02:37:12;96545.19;;;3.66;100.00
3796;BME280;1913;50.660;7.834;2023-04-25T02:39:37;96547.19;;;3.78;100.00
3796;BME280;1913;50.660;7.834;2023-04-25T02:42:03;96543.91;;;3.84;100.00
3796;BME280;1913;50.660;7.834;2023-04-25T02:44:28;96547.69;;;3.97;100.00
3796;BME280;1913;50.660;7.834;2023-04-25T02:46:53;96547.34;;;4.00;100.00
3796;BME280;1913;50.660;7.834;2023-04-25T02:49:19;96546.34;;;4.01;100.00
3796;BME280;1913;50.660;7.834;2023-04-25T02:51:44;96545.00;;;4.05;100.00
3796;BME280;1913;50.660;7.834;2023-04-25T02:54:10;96541.91;;;4.10;100.00
3796;BME280;1913;50.660;7.834;2023-04-25T02:56:35;96545.19;;;4.03;100.00
3796;BME280;1913;50.660;7.834;2023-04-25T02:59:01;96544.66;;;4.08;100.00
3796;BME280;1913;50.660;7.834;2023-04-25T03:01:29;96544.19;;;4.04;100.00
3796;BME280;1913;50.660;7.834;2023-04-25T03:03:54;96533.38;;;4.16;100.00
3796;BME280;1913;50.660;7.834;2023-04-25T03:06:20;96538.19;;;4.04;100.00
3796;BME280;1913;50.660;7.834;2023-04-25T03:08:45;96544.66;;;4.08;100.00
3796;BME280;1913;50.660;7.834;2023-04-25T03:11:11;96541.06;;;4.09;100.00
3796;BME280;1913;50.660;7.834;2023-04-25T03:13:36;96539.47;;;4.08;100.00
3796;BME280;1913;50.660;7.834;2023-04-25T03:16:01;96537.94;;;4.14;100.00
3796;BME280;1913;50.660;7.834;2023-04-25T03:18:27;96542.63;;;4.18;100.00
3796;BME280;1913;50.660;7.834;2023-04-25T03:20:52;96534.66;;;4.20;100.00
3796;BME280;1913;50.660;7.834;2023-04-25T03:23:18;96539.38;;;4.16;100.00
3796;BME280;1913;50.660;7.834;2023-04-25T03:25:43;96534.16;;;4.16;100.00
3796;BME280;1913;50.660;7.834;2023-04-25T03:28:08;96532.75;;;4.28;100.00
3796;BME280;1913;50.660;7.834;2023-04-25T03:30:34;96531.41;;;4.18;100.00
3796;BME280;1913;50.660;7.834;2023-04-25T03:32:59;96535.72;;;4.25;100.00
3796;BME280;1913;50.660;7.834;2023-04-25T03:35:25;96535.72;;;4.25;100.00
3796;BME280;1913;50.660;7.834;2023-04-25T03:37:50;96534.72;;;4.26;100.00
3796;BME280;1913;50.660;7.834;2023-04-25T03:40:15;96537.69;;;4.23;100.00
3796;BME280;1913;50.660;7.834;2023-04-25T03:42:41;96537.16;;;4.13;100.00
3796;BME280;1913;50.660;7.834;2023-04-25T03:45:07;96533.53;;;3.99;100.00
3796;BME280;1913;50.660;7.834;2023-04-25T03:47:33;96538.00;;;4.05;100.00
3796;BME280;1913;50.660;7.834;2023-04-25T03:49:58;96539.25;;;3.95;100.00
3796;BME280;1913;50.660;7.834;2023-04-25T03:52:25;96539.69;;;3.83;100.00
3796;BME280;1913;50.660;7.834;2023-04-25T03:54:51;96532.84;;;3.68;100.00
3796;BME280;1913;50.660;7.834;2023-04-25T03:57:16;96542.31;;;3.60;100.00
3796;BME280;1913;50.660;7.834;2023-04-25T03:59:42;96544.16;;;3.52;100.00
3796;BME280;1913;50.660;7.834;2023-04-25T04:02:07;96539.59;;;3.54;100.00
3796;BME280;1913;50.660;7.834;2023-04-25T04:04:33;96545.53;;;3.40;100.00
3796;BME280;1913;50.660;7.834;2023-04-25T04:06:58;96548.69;;;3.27;100.00
3796;BME280;1913;50.660;7.834;2023-04-25T04:09:24;96541.63;;;3.12;100.00
3796;BME280;1913;50.660;7.834;2023-04-25T04:11:50;96541.31;;;3.16;100.00
3796;BME280;1913;50.660;7.834;2023-04-25T04:14:15;96547.03;;;3.11;100.00
3796;BME280;1913;50.660;7.834;2023-04-25T04:16:44;96547.06;;;3.03;100.00
3796;BME280;1913;50.660;7.834;2023-04-25T04:19:10;96544.50;;;2.95;100.00
3796;BME280;1913;50.660;7.834;2023-04-25T04:21:35;96546.00;;;2.89;100.00
3796;BME280;1913;50.660;7.834;2023-04-25T04:24:01;96547.78;;;2.88;100.00
3796;BME280;1913;50.660;7.834;2023-04-25T04:26:27;96552.50;;;2.85;100.00
3796;BME280;1913;50.660;7.834;2023-04-25T04:28:52;96551.88;;;2.83;100.00
3796;BME280;1913;50.660;7.834;2023-04-25T04:31:20;96557.56;;;2.78;100.00
3796;BME280;1913;50.660;7.834;2023-04-25T04:33:46;96563.25;;;2.74;100.00
3796;BME280;1913;50.660;7.834;2023-04-25T04:36:12;96557.09;;;2.75;100.00
3796;BME280;1913;50.660;7.834;2023-04-25T04:38:38;96561.72;;;2.87;100.00
3796;BME280;1913;50.660;7.834;2023-04-25T04:41:04;96565.31;;;2.86;100.00
3796;BME280;1913;50.660;7.834;2023-04-25T04:43:29;96563.66;;;2.94;100.00
3796;BME280;1913;50.660;7.834;2023-04-25T04:45:55;96559.59;;;2.91;100.00
3796;BME280;1913;50.660;7.834;2023-04-25T04:48:23;96571.63;;;2.92;100.00
3796;BME280;1913;50.660;7.834;2023-04-25T04:50:49;96580.22;;;3.24;100.00
3796;BME280;1913;50.660;7.834;2023-04-25T04:53:14;96585.38;;;3.32;100.00
3796;BME280;1913;50.660;7.834;2023-04-25T04:55:40;96586.25;;;3.16;100.00
3796;BME280;1913;50.660;7.834;2023-04-25T04:58:08;96583.16;;;3.44;100.00
3796;BME280;1913;50.660;7.834;2023-04-25T05:00:34;96585.19;;;3.33;100.00
3796;BME280;1913;50.660;7.834;2023-04-25T05:02:59;96592.47;;;3.38;100.00
3796;BME280;1913;50.660;7.834;2023-04-25T05:05:25;96595.34;;;3.66;100.00
3796;BME280;1913;50.660;7.834;2023-04-25T05:07:51;96603.56;;;3.55;100.00
3796;BME280;1913;50.660;7.834;2023-04-25T05:10:17;96607.25;;;3.60;100.00
3796;BME280;1913;50.660;7.834;2023-04-25T05:12:43;96600.56;;;3.66;100.00
3796;BME280;1913;50.660;7.834;2023-04-25T05:15:09;96614.00;;;3.70;100.00
3796;BME280;1913;50.660;7.834;2023-04-25T05:17:35;96610.19;;;3.80;100.00
3796;BME280;1913;50.660;7.834;2023-04-25T05:20:01;96610.84;;;3.82;100.00
3796;BME280;1913;50.660;7.834;2023-04-25T05:22:28;96614.91;;;3.85;100.00
3796;BME280;1913;50.660;7.834;2023-04-25T05:24:53;96613.97;;;3.78;100.00
3796;BME280;1913;50.660;7.834;2023-04-25T05:27:19;96620.81;;;3.94;100.00
3796;BME280;1913;50.660;7.834;2023-04-25T05:29:45;96616.72;;;3.99;100.00
3796;BME280;1913;50.660;7.834;2023-04-25T05:32:10;96616.72;;;3.99;100.00
3796;BME280;1913;50.660;7.834;2023-04-25T05:34:36;96623.25;;;3.95;100.00
3796;BME280;1913;50.660;7.834;2023-04-25T05:37:02;96624.19;;;4.02;100.00
3796;BME280;1913;50.660;7.834;2023-04-25T05:39:28;96631.78;;;4.04;100.00
3796;BME280;1913;50.660;7.834;2023-04-25T05:41:53;96626.75;;;4.25;100.00
3796;BME280;1913;50.660;7.834;2023-04-25T05:44:18;96629.34;;;4.25;100.00
3796;BME280;1913;50.660;7.834;2023-04-25T05:46:44;96637.34;;;4.24;100.00
3796;BME280;1913;50.660;7.834;2023-04-25T05:49:10;96637.94;;;4.26;100.00
3796;BME280;1913;50.660;7.834;2023-04-25T05:51:35;96637.13;;;4.11;100.00
3796;BME280;1913;50.660;7.834;2023-04-25T05:54:01;96640.28;;;3.98;100.00
3796;BME280;1913;50.660;7.834;2023-04-25T05:56:26;96639.47;;;3.97;100.00
3796;BME280;1913;50.660;7.834;2023-04-25T05:58:51;96644.03;;;4.18;100.00
3796;BME280;1913;50.660;7.834;2023-04-25T06:01:17;96642.78;;;4.14;100.00
3796;BME280;1913;50.660;7.834;2023-04-25T06:03:42;96646.84;;;4.31;100.00
3796;BME280;1913;50.660;7.834;2023-04-25T06:06:08;96647.66;;;4.32;100.00
3796;BME280;1913;50.660;7.834;2023-04-25T06:08:34;96654.00;;;4.52;100.00
3796;BME280;1913;50.660;7.834;2023-04-25T06:11:00;96645.03;;;4.70;100.00
3796;BME280;1913;50.660;7.834;2023-04-25T06:13:25;96649.84;;;4.58;100.00
3796;BME280;1913;50.660;7.834;2023-04-25T06:15:51;96660.09;;;4.60;100.00
3796;BME280;1913;50.660;7.834;2023-04-25T06:18:16;96659.81;;;4.69;100.00
3796;BME280;1913;50.660;7.834;2023-04-25T06:20:42;96653.72;;;4.62;100.00
3796;BME280;1913;50.660;7.834;2023-04-25T06:23:07;96654.00;;;4.67;100.00
3796;BME280;1913;50.660;7.834;2023-04-25T06:25:33;96662.38;;;4.77;100.00
3796;BME280;1913;50.660;7.834;2023-04-25T06:27:58;96658.06;;;4.85;100.00
3796;BME280;1913;50.660;7.834;2023-04-25T06:30:24;96660.38;;;4.94;100.00
3796;BME280;1913;50.660;7.834;2023-04-25T06:32:51;96668.56;;;4.91;100.00
3796;BME280;1913;50.660;7.834;2023-04-25T06:35:18;96665.66;;;5.01;100.00
3796;BME280;1913;50.660;7.834;2023-04-25T06:37:44;96671.78;;;5.08;100.00
3796;BME280;1913;50.660;7.834;2023-04-25T06:40:09;96673.47;;;5.01;100.00
3796;BME280;1913;50.660;7.834;2023-04-25T06:42:35;96673.38;;;4.94;100.00
3796;BME280;1913;50.660;7.834;2023-04-25T06:45:01;96677.19;;;4.92;100.00
3796;BME280;1913;50.660;7.834;2023-04-25T06:47:26;96673.84;;;4.98;100.00
3796;BME280;1913;50.660;7.834;2023-04-25T06:49:51;96675.47;;;4.99;100.00
3796;BME280;1913;50.660;7.834;2023-04-25T06:52:17;96678.78;;;5.08;100.00
3796;BME280;1913;50.660;7.834;2023-04-25T06:54:43;96688.94;;;5.17;100.00
3796;BME280;1913;50.660;7.834;2023-04-25T06:57:08;96687.03;;;5.26;100.00
3796;BME280;1913;50.660;7.834;2023-04-25T06:59:34;96677.44;;;5.26;100.00
3796;BME280;1913;50.660;7.834;2023-04-25T07:01:59;96683.00;;;5.38;100.00
3796;BME280;1913;50.660;7.834;2023-04-25T07:04:25;96696.25;;;5.58;100.00
3796;BME280;1913;50.660;7.834;2023-04-25T07:06:50;96693.88;;;5.78;100.00
3796;BME280;1913;50.660;7.834;2023-04-25T07:09:16;96686.22;;;5.91;100.00
3796;BME280;1913;50.660;7.834;2023-04-25T07:11:41;96690.03;;;6.32;100.00
3796;BME280;1913;50.660;7.834;2023-04-25T07:14:08;96681.00;;;6.56;100.00
3796;BME280;1913;50.660;7.834;2023-04-25T07:16:33;96681.00;;;6.84;100.00
3796;BME280;1913;50.660;7.834;2023-04-25T07:18:58;96681.81;;;6.84;100.00
3796;BME280;1913;50.660;7.834;2023-04-25T07:21:27;96684.81;;;7.16;100.00
3796;BME280;1913;50.660;7.834;2023-04-25T07:23:52;96696.63;;;7.53;100.00
3796;BME280;1913;50.660;7.834;2023-04-25T07:26:18;96699.41;;;8.06;100.00
3796;BME280;1913;50.660;7.834;2023-04-25T07:28:43;96698.78;;;7.91;100.00
3796;BME280;1913;50.660;7.834;2023-04-25T07:31:09;96692.41;;;8.27;100.00
3796;BME280;1913;50.660;7.834;2023-04-25T07:33:34;96704.50;;;8.34;100.00
3796;BME280;1913;50.660;7.834;2023-04-25T07:36:00;96707.47;;;8.05;100.00
3796;BME280;1913;50.660;7.834;2023-04-25T07:38:25;96699.44;;;8.13;100.00
3796;BME280;1913;50.660;7.834;2023-04-25T07:40:51;96700.06;;;7.54;100.00
3796;BME280;1913;50.660;7.834;2023-04-25T07:43:16;96705.81;;;7.36;100.00
3796;BME280;1913;50.660;7.834;2023-04-25T07:45:43;96709.97;;;7.24;100.00
3796;BME280;1913;50.660;7.834;2023-04-25T07:48:08;96717.13;;;7.08;100.00
3796;BME280;1913;50.660;7.834;2023-04-25T07:50:34;96704.41;;;7.33;100.00
3796;BME280;1913;50.660;7.834;2023-04-25T07:52:59;96709.97;;;7.72;100.00
3796;BME280;1913;50.660;7.834;2023-04-25T07:55:25;96712.72;;;8.05;100.00
3796;BME280;1913;50.660;7.834;2023-04-25T07:57:51;96722.22;;;8.32;100.00
3796;BME280;1913;50.660;7.834;2023-04-25T08:00:17;96722.81;;;8.21;100.00
3796;BME280;1913;50.660;7.834;2023-04-25T08:02:42;96730.75;;;8.61;100.00
3796;BME280;1913;50.660;7.834;2023-04-25T08:05:08;96724.09;;;8.78;100.00
3796;BME280;1913;50.660;7.834;2023-04-25T08:07:37;96733.97;;;8.70;100.00
3796;BME280;1913;50.660;7.834;2023-04-25T08:10:03;96735.72;;;8.36;100.00
3796;BME280;1913;50.660;7.834;2023-04-25T08:12:29;96745.75;;;8.12;100.00
3796;BME280;1913;50.660;7.834;2023-04-25T08:14:54;96743.69;;;7.95;100.00
3796;BME280;1913;50.660;7.834;2023-04-25T08:17:20;96741.31;;;7.58;100.00
3796;BME280;1913;50.660;7.834;2023-04-25T08:19:45;96744.25;;;7.42;100.00
3796;BME280;1913;50.660;7.834;2023-04-25T08:22:10;96751.25;;;7.35;100.00
3796;BME280;1913;50.660;7.834;2023-04-25T08:24:36;96752.94;;;7.49;100.00
3796;BME280;1913;50.660;7.834;2023-04-25T08:27:01;96756.50;;;7.41;100.00
3796;BME280;1913;50.660;7.834;2023-04-25T08:29:27;96759.84;;;7.63;100.00
3796;BME280;1913;50.660;7.834;2023-04-25T08:31:53;96762.75;;;7.82;100.00
3796;BME280;1913;50.660;7.834;2023-04-25T08:34:19;96756.25;;;8.26;100.00
3796;BME280;1913;50.660;7.834;2023-04-25T08:36:45;96767.56;;;8.33;100.00
3796;BME280;1913;50.660;7.834;2023-04-25T08:39:10;96768.00;;;8.56;100.00
3796;BME280;1913;50.660;7.834;2023-04-25T08:41:40;96766.59;;;7.92;100.00
3796;BME280;1913;50.660;7.834;2023-04-25T08:44:06;96772.25;;;7.96;100.00
3796;BME280;1913;50.660;7.834;2023-04-25T08:46:38;96774.22;;;7.81;100.00
3796;BME280;1913;50.660;7.834;2023-04-25T08:49:03;96780.91;;;7.90;100.00
3796;BME280;1913;50.660;7.834;2023-04-25T08:51:31;96781.72;;;7.97;100.00
3796;BME280;1913;50.660;7.834;2023-04-25T08:54:19;96779.59;;;8.21;100.00
3796;BME280;1913;50.660;7.834;2023-04-25T08:56:47;96794.69;;;8.25;100.00
3796;BME280;1913;50.660;7.834;2023-04-25T08:59:13;96798.44;;;8.57;100.00
3796;BME280;1913;50.660;7.834;2023-04-25T09:01:39;96802.44;;;8.53;100.00
3796;BME280;1913;50.660;7.834;2023-04-25T09:04:04;96803.69;;;8.57;100.00
3796;BME280;1913;50.660;7.834;2023-04-25T09:06:30;96803.84;;;8.49;100.00
3796;BME280;1913;50.660;7.834;2023-04-25T09:09:07;96808.88;;;8.37;100.00
3796;BME280;1913;50.660;7.834;2023-04-25T09:11:34;96808.59;;;8.19;100.00
3796;BME280;1913;50.660;7.834;2023-04-25T09:14:30;96820.25;;;8.16;100.00
3796;BME280;1913;50.660;7.834;2023-04-25T09:21:53;96826.09;;;8.19;100.00
3796;BME280;1913;50.660;7.834;2023-04-25T09:24:38;96832.88;;;8.06;100.00
3796;BME280;1913;50.660;7.834;2023-04-25T09:27:09;96837.09;;;8.07;100.00
3796;BME280;1913;50.660;7.834;2023-04-25T09:29:37;96836.41;;;7.85;100.00
3796;BME280;1913;50.660;7.834;2023-04-25T09:32:19;96839.91;;;7.99;100.00
3796;BME280;1913;50.660;7.834;2023-04-25T09:34:47;96842.97;;;8.09;100.00
3796;BME280;1913;50.660;7.834;2023-04-25T09:39:49;96843.63;;;8.86;100.00
3796;BME280;1913;50.660;7.834;2023-04-25T09:42:15;96842.63;;;9.14;100.00
3796;BME280;1913;50.660;7.834;2023-04-25T09:44:45;96848.69;;;9.54;100.00
3796;BME280;1913;50.660;7.834;2023-04-25T09:47:15;96839.84;;;10.13;95.71
3796;BME280;1913;50.660;7.834;2023-04-25T09:49:43;96847.81;;;10.45;85.10
3796;BME280;1913;50.660;7.834;2023-04-25T09:52:13;96849.56;;;9.99;75.31
3796;BME280;1913;50.660;7.834;2023-04-25T09:54:40;96846.63;;;10.41;80.76
3796;BME280;1913;50.660;7.834;2023-04-25T09:57:22;96858.56;;;10.82;79.16
3796;BME280;1913;50.660;7.834;2023-04-25T09:59:53;96858.41;;;10.18;79.04
3796;BME280;1913;50.660;7.834;2023-04-25T10:02:20;96851.50;;;9.39;69.47
3796;BME280;1913;50.660;7.834;2023-04-25T10:04:48;96855.13;;;9.05;69.75
3796;BME280;1913;50.660;7.834;2023-04-25T10:07:14;96862.59;;;9.01;79.91
3796;BME280;1913;50.660;7.834;2023-04-25T10:09:40;96857.94;;;9.03;82.77
3796;BME280;1913;50.660;7.834;2023-04-25T10:12:07;96860.09;;;8.67;82.89
3796;BME280;1913;50.660;7.834;2023-04-25T10:14:33;96871.91;;;8.43;90.58
3796;BME280;1913;50.660;7.834;2023-04-25T10:17:00;96872.00;;;8.21;95.27
3796;BME280;1913;50.660;7.834;2023-04-25T10:19:26;96878.03;;;8.22;93.51
3796;BME280;1913;50.660;7.834;2023-04-25T10:22:04;96886.44;;;8.10;95.77
3796;BME280;1913;50.660;7.834;2023-04-25T10:24:31;96876.44;;;7.86;99.02
3796;BME280;1913;50.660;7.834;2023-04-25T10:26:58;96884.84;;;7.47;100.00
3796;BME280;1913;50.660;7.834;2023-04-25T10:29:26;96886.59;;;7.39;100.00
3796;BME280;1913;50.660;7.834;2023-04-25T10:31:52;96886.56;;;7.61;100.00
3796;BME280;1913;50.660;7.834;2023-04-25T10:34:18;96884.91;;;7.53;100.00
3796;BME280;1913;50.660;7.834;2023-04-25T10:36:53;96886.41;;;7.41;100.00
3796;BME280;1913;50.660;7.834;2023-04-25T10:39:24;96882.47;;;7.52;100.00
3796;BME280;1913;50.660;7.834;2023-04-25T10:41:53;96885.69;;;7.82;100.00
3796;BME280;1913;50.660;7.834;2023-04-25T10:44:20;96892.84;;;8.01;100.00
3796;BME280;1913;50.660;7.834;2023-04-25T10:46:46;96889.69;;;8.12;100.00
3796;BME280;1913;50.660;7.834;2023-04-25T10:49:29;96893.53;;;8.58;99.08
3796;BME280;1913;50.660;7.834;2023-04-25T10:52:15;96897.88;;;9.05;87.49
3796;BME280;1913;50.660;7.834;2023-04-25T10:57:36;96909.38;;;9.84;88.18
3796;BME280;1913;50.660;7.834;2023-04-25T11:02:49;96896.25;;;10.55;66.24
3796;BME280;1913;50.660;7.834;2023-04-25T11:05:37;96904.38;;;10.92;64.72
3796;BME280;1913;50.660;7.834;2023-04-25T11:08:11;96896.22;;;11.07;61.58
3796;BME280;1913;50.660;7.834;2023-04-25T11:10:36;96906.16;;;11.55;58.57
3796;BME280;1913;50.660;7.834;2023-04-25T11:13:02;96902.28;;;11.83;54.51
3796;BME280;1913;50.660;7.834;2023-04-25T11:15:28;96904.09;;;12.07;56.29
3796;BME280;1913;50.660;7.834;2023-04-25T11:17:54;96907.16;;;12.41;55.23
3796;BME280;1913;50.660;7.834;2023-04-25T11:20:21;96912.50;;;11.97;53.65
3796;BME280;1913;50.660;7.834;2023-04-25T11:22:47;96911.59;;;11.60;53.86
3796;BME280;1913;50.660;7.834;2023-04-25T11:25:14;96915.44;;;11.01;56.72
3796;BME280;1913;50.660;7.834;2023-04-25T11:27:53;96921.13;;;10.98;58.34
3796;BME280;1913;50.660;7.834;2023-04-25T11:30:20;96917.25;;;10.62;61.70
3796;BME280;1913;50.660;7.834;2023-04-25T11:32:46;96918.72;;;10.51;60.29
3796;BME280;1913;50.660;7.834;2023-04-25T11:35:12;96918.78;;;10.25;66.27
3796;BME280;1913;50.660;7.834;2023-04-25T11:37:42;96931.56;;;10.01;65.85
3796;BME280;1913;50.660;7.834;2023-04-25T11:40:08;96922.13;;;9.54;70.87
3796;BME280;1913;50.660;7.834;2023-04-25T11:42:39;96929.88;;;8.87;94.77
3796;BME280;1913;50.660;7.834;2023-04-25T11:45:06;96930.47;;;8.35;100.00
3796;BME280;1913;50.660;7.834;2023-04-25T11:47:32;96924.50;;;8.13;100.00
3796;BME280;1913;50.660;7.834;2023-04-25T11:49:59;96929.59;;;8.21;100.00
3796;BME280;1913;50.660;7.834;2023-04-25T11:52:35;96916.84;;;8.46;100.00
3796;BME280;1913;50.660;7.834;2023-04-25T11:55:00;96923.81;;;8.74;100.00
3796;BME280;1913;50.660;7.834;2023-04-25T11:57:26;96919.25;;;9.95;100.00
3796;BME280;1913;50.660;7.834;2023-04-25T11:59:51;96913.91;;;11.50;79.19
3796;BME280;1913;50.660;7.834;2023-04-25T12:02:26;96923.22;;;12.39;76.09
3796;BME280;1913;50.660;7.834;2023-04-25T12:04:51;96925.25;;;12.37;61.15
3796;BME280;1913;50.660;7.834;2023-04-25T12:07:17;96927.56;;;13.43;62.20
3796;BME280;1913;50.660;7.834;2023-04-25T12:09:51;96919.94;;;12.92;52.39
3796;BME280;1913;50.660;7.834;2023-04-25T12:12:17;96930.66;;;13.09;52.33
3796;BME280;1913;50.660;7.834;2023-04-25T12:14:46;96927.16;;;12.30;49.16
3796;BME280;1913;50.660;7.834;2023-04-25T12:17:13;96924.06;;;12.15;53.62
3796;BME280;1913;50.660;7.834;2023-04-25T12:19:39;96927.59;;;12.64;51.94
3796;BME280;1913;50.660;7.834;2023-04-25T12:22:19;96924.81;;;12.40;50.54
3796;BME280;1913;50.660;7.834;2023-04-25T12:24:46;96936.47;;;11.89;52.39
3796;BME280;1913;50.660;7.834;2023-04-25T12:27:14;96938.72;;;11.61;55.85
3796;BME280;1913;50.660;7.834;2023-04-25T12:29:55;96941.41;;;10.19;72.27
3796;BME280;1913;50.660;7.834;2023-04-25T12:32:21;96949.53;;;9.38;79.40
3796;BME280;1913;50.660;7.834;2023-04-25T12:34:47;96955.72;;;8.97;88.35
3796;BME280;1913;50.660;7.834;2023-04-25T12:37:13;96957.53;;;8.42;100.00
3796;BME280;1913;50.660;7.834;2023-04-25T12:39:38;96966.91;;;8.30;100.00
3796;BME280;1913;50.660;7.834;2023-04-25T12:42:04;96965.34;;;8.07;100.00
3796;BME280;1913;50.660;7.834;2023-04-25T12:44:30;96965.81;;;7.89;100.00
3796;BME280;1913;50.660;7.834;2023-04-25T12:46:55;96963.03;;;7.91;100.00
3796;BME280;1913;50.660;7.834;2023-04-25T12:49:21;96968.25;;;8.19;100.00
3796;BME280;1913;50.660;7.834;2023-04-25T12:51:47;96969.63;;;8.43;100.00
3796;BME280;1913;50.660;7.834;2023-04-25T12:54:12;96962.34;;;8.38;91.71
3796;BME280;1913;50.660;7.834;2023-04-25T12:56:40;96955.69;;;8.91;97.13
3796;BME280;1913;50.660;7.834;2023-04-25T12:59:05;96961.94;;;8.96;93.12
3796;BME280;1913;50.660;7.834;2023-04-25T13:01:31;96961.34;;;8.87;76.81
3796;BME280;1913;50.660;7.834;2023-04-25T13:03:57;96951.31;;;9.04;81.86
3796;BME280;1913;50.660;7.834;2023-04-25T13:06:22;96954.91;;;9.03;71.17
3796;BME280;1913;50.660;7.834;2023-04-25T13:08:48;96954.06;;;8.83;61.72
3796;BME280;1913;50.660;7.834;2023-04-25T13:11:13;96954.13;;;9.03;59.60
3796;BME280;1913;50.660;7.834;2023-04-25T13:13:43;96953.16;;;9.24;57.93
3796;BME280;1913;50.660;7.834;2023-04-25T13:16:09;96949.34;;;9.79;57.75
3796;BME280;1913;50.660;7.834;2023-04-25T13:18:35;96954.34;;;10.27;55.67
3796;BME280;1913;50.660;7.834;2023-04-25T13:21:01;96946.41;;;10.54;55.37
3796;BME280;1913;50.660;7.834;2023-04-25T13:23:28;96955.03;;;11.44;52.21
3796;BME280;1913;50.660;7.834;2023-04-25T13:25:54;96953.34;;;10.87;52.90
3796;BME280;1913;50.660;7.834;2023-04-25T13:28:20;96956.31;;;11.03;55.24
3796;BME280;1913;50.660;7.834;2023-04-25T13:30:46;96954.16;;;10.81;54.50
3796;BME280;1913;50.660;7.834;2023-04-25T13:33:13;96955.38;;;10.85;56.42